sensor_id;sensor_type;location;lat;lon;timestamp;P1;durP1;ratioP1;P2;durP2;ratioP2
50225;SDS011;36113;50.742;6.432;2024-03-06T00:01:32;4.30;;;2.15;;
50225;SDS011;36113;50.742;6.432;2024-03-06T00:03:58;2.65;;;2.30;;
50225;SDS011;36113;50.742;6.432;2024-03-06T00:06:24;1.80;;;1.70;;
50225;SDS011;36113;50.742;6.432;2024-03-06T00:08:49;1.75;;;1.58;;
50225;SDS011;36113;50.742;6.432;2024-03-06T00:11:15;3.17;;;1.80;;
50225;SDS011;36113;50.742;6.432;2024-03-06T00:13:40;2.97;;;1.90;;
50225;SDS011;36113;50.742;6.432;2024-03-06T00:16:06;2.03;;;1.70;;
50225;SDS011;36113;50.742;6.432;2024-03-06T00:18:31;2.85;;;1.67;;
50225;SDS011;36113;50.742;6.432;2024-03-06T00:20:57;2.70;;;1.25;;
50225;SDS011;36113;50.742;6.432;2024-03-06T00:23:22;3.13;;;1.30;;
50225;SDS011;36113;50.742;6.432;2024-03-06T00:25:47;2.78;;;1.70;;
50225;SDS011;36113;50.742;6.432;2024-03-06T00:28:12;2.75;;;1.23;;
50225;SDS011;36113;50.742;6.432;2024-03-06T00:30:38;2.25;;;2.00;;
50225;SDS011;36113;50.742;6.432;2024-03-06T00:33:03;4.70;;;1.55;;
50225;SDS011;36113;50.742;6.432;2024-03-06T00:35:28;2.63;;;1.38;;
50225;SDS011;36113;50.742;6.432;2024-03-06T00:37:54;5.03;;;1.63;;
50225;SDS011;36113;50.742;6.432;2024-03-06T00:40:19;2.90;;;1.45;;
50225;SDS011;36113;50.742;6.432;2024-03-06T00:42:45;2.20;;;1.52;;
50225;SDS011;36113;50.742;6.432;2024-03-06T00:45:10;1.58;;;1.48;;
50225;SDS011;36113;50.742;6.432;2024-03-06T00:47:35;2.03;;;1.40;;
50225;SDS011;36113;50.742;6.432;2024-03-06T00:50:01;1.08;;;1.08;;
50225;SDS011;36113;50.742;6.432;2024-03-06T00:52:26;3.38;;;1.83;;
50225;SDS011;36113;50.742;6.432;2024-03-06T00:54:52;1.50;;;1.40;;
50225;SDS011;36113;50.742;6.432;2024-03-06T00:57:17;1.88;;;1.35;;
50225;SDS011;36113;50.742;6.432;2024-03-06T00:59:43;2.33;;;1.63;;
50225;SDS011;36113;50.742;6.432;2024-03-06T01:02:08;3.33;;;1.45;;
50225;SDS011;36113;50.742;6.432;2024-03-06T01:04:33;2.38;;;2.08;;
50225;SDS011;36113;50.742;6.432;2024-03-06T01:06:58;1.48;;;1.35;;
50225;SDS011;36113;50.742;6.432;2024-03-06T01:09:24;4.40;;;1.60;;
50225;SDS011;36113;50.742;6.432;2024-03-06T01:11:49;1.75;;;1.50;;
50225;SDS011;36113;50.742;6.432;2024-03-06T01:14:15;4.00;;;1.38;;
50225;SDS011;36113;50.742;6.432;2024-03-06T01:16:41;3.23;;;1.20;;
50225;SDS011;36113;50.742;6.432;2024-03-06T01:19:06;1.42;;;1.30;;
50225;SDS011;36113;50.742;6.432;2024-03-06T01:21:32;2.50;;;1.60;;
50225;SDS011;36113;50.742;6.432;2024-03-06T01:23:59;1.75;;;1.60;;
50225;SDS011;36113;50.742;6.432;2024-03-06T01:26:25;2.55;;;1.40;;
50225;SDS011;36113;50.742;6.432;2024-03-06T01:28:50;1.67;;;1.58;;
50225;SDS011;36113;50.742;6.432;2024-03-06T01:31:15;1.88;;;1.77;;
50225;SDS011;36113;50.742;6.432;2024-03-06T01:33:40;3.47;;;1.40;;
50225;SDS011;36113;50.742;6.432;2024-03-06T01:36:06;2.28;;;1.58;;
50225;SDS011;36113;50.742;6.432;2024-03-06T01:38:31;2.05;;;1.90;;
50225;SDS011;36113;50.742;6.432;2024-03-06T01:40:57;1.70;;;1.60;;
50225;SDS011;36113;50.742;6.432;2024-03-06T01:43:23;3.42;;;1.35;;
50225;SDS011;36113;50.742;6.432;2024-03-06T01:45:50;1.35;;;1.27;;
50225;SDS011;36113;50.742;6.432;2024-03-06T01:48:19;1.60;;;1.50;;
50225;SDS011;36113;50.742;6.432;2024-03-06T01:50:46;4.30;;;1.40;;
50225;SDS011;36113;50.742;6.432;2024-03-06T01:53:12;1.73;;;1.63;;
50225;SDS011;36113;50.742;6.432;2024-03-06T01:58:04;3.15;;;1.63;;
50225;SDS011;36113;50.742;6.432;2024-03-06T02:00:31;2.10;;;1.77;;
50225;SDS011;36113;50.742;6.432;2024-03-06T02:02:56;4.57;;;1.90;;
50225;SDS011;36113;50.742;6.432;2024-03-06T02:05:22;5.80;;;1.77;;
50225;SDS011;36113;50.742;6.432;2024-03-06T02:07:47;3.78;;;1.65;;
50225;SDS011;36113;50.742;6.432;2024-03-06T02:10:14;1.73;;;1.63;;
50225;SDS011;36113;50.742;6.432;2024-03-06T02:12:39;4.18;;;2.97;;
50225;SDS011;36113;50.742;6.432;2024-03-06T02:15:06;1.40;;;1.30;;
50225;SDS011;36113;50.742;6.432;2024-03-06T02:17:32;1.73;;;1.30;;
50225;SDS011;36113;50.742;6.432;2024-03-06T02:19:57;1.98;;;1.50;;
50225;SDS011;36113;50.742;6.432;2024-03-06T02:22:23;3.77;;;1.70;;
50225;SDS011;36113;50.742;6.432;2024-03-06T02:24:49;3.17;;;1.75;;
50225;SDS011;36113;50.742;6.432;2024-03-06T02:27:14;2.13;;;1.77;;
50225;SDS011;36113;50.742;6.432;2024-03-06T02:29:41;2.78;;;1.52;;
50225;SDS011;36113;50.742;6.432;2024-03-06T02:32:07;1.67;;;1.55;;
50225;SDS011;36113;50.742;6.432;2024-03-06T02:34:33;1.48;;;1.38;;
50225;SDS011;36113;50.742;6.432;2024-03-06T02:36:59;1.50;;;1.40;;
50225;SDS011;36113;50.742;6.432;2024-03-06T02:39:24;1.83;;;1.38;;
50225;SDS011;36113;50.742;6.432;2024-03-06T02:41:50;4.40;;;1.75;;
50225;SDS011;36113;50.742;6.432;2024-03-06T02:44:15;2.80;;;1.63;;
50225;SDS011;36113;50.742;6.432;2024-03-06T02:46:42;1.67;;;1.58;;
50225;SDS011;36113;50.742;6.432;2024-03-06T02:49:12;1.80;;;1.67;;
50225;SDS011;36113;50.742;6.432;2024-03-06T02:51:37;1.95;;;1.73;;
50225;SDS011;36113;50.742;6.432;2024-03-06T02:54:02;2.03;;;1.55;;
50225;SDS011;36113;50.742;6.432;2024-03-06T02:56:28;2.55;;;2.20;;
50225;SDS011;36113;50.742;6.432;2024-03-06T02:58:53;3.65;;;2.00;;
50225;SDS011;36113;50.742;6.432;2024-03-06T03:01:19;2.45;;;1.75;;
50225;SDS011;36113;50.742;6.432;2024-03-06T03:03:45;2.55;;;2.30;;
50225;SDS011;36113;50.742;6.432;2024-03-06T03:06:12;2.10;;;1.83;;
50225;SDS011;36113;50.742;6.432;2024-03-06T03:08:38;4.93;;;2.45;;
50225;SDS011;36113;50.742;6.432;2024-03-06T03:11:04;3.92;;;2.10;;
50225;SDS011;36113;50.742;6.432;2024-03-06T03:13:29;1.75;;;1.65;;
50225;SDS011;36113;50.742;6.432;2024-03-06T03:15:55;2.80;;;1.70;;
50225;SDS011;36113;50.742;6.432;2024-03-06T03:18:21;1.70;;;1.60;;
50225;SDS011;36113;50.742;6.432;2024-03-06T03:20:46;1.50;;;1.40;;
50225;SDS011;36113;50.742;6.432;2024-03-06T03:23:12;1.58;;;1.48;;
50225;SDS011;36113;50.742;6.432;2024-03-06T03:25:40;2.30;;;1.50;;
50225;SDS011;36113;50.742;6.432;2024-03-06T03:28:06;1.77;;;1.20;;
50225;SDS011;36113;50.742;6.432;2024-03-06T03:30:31;3.22;;;1.38;;
50225;SDS011;36113;50.742;6.432;2024-03-06T03:32:57;3.67;;;1.17;;
50225;SDS011;36113;50.742;6.432;2024-03-06T03:35:22;2.38;;;1.52;;
50225;SDS011;36113;50.742;6.432;2024-03-06T03:37:50;3.58;;;1.60;;
50225;SDS011;36113;50.742;6.432;2024-03-06T03:40:17;3.03;;;1.38;;
50225;SDS011;36113;50.742;6.432;2024-03-06T03:42:43;1.83;;;1.50;;
50225;SDS011;36113;50.742;6.432;2024-03-06T03:45:09;3.30;;;1.40;;
50225;SDS011;36113;50.742;6.432;2024-03-06T03:47:34;2.67;;;1.95;;
50225;SDS011;36113;50.742;6.432;2024-03-06T03:49:59;1.85;;;1.70;;
50225;SDS011;36113;50.742;6.432;2024-03-06T03:52:25;1.85;;;1.75;;
50225;SDS011;36113;50.742;6.432;2024-03-06T03:54:50;1.92;;;1.83;;
50225;SDS011;36113;50.742;6.432;2024-03-06T03:57:15;3.53;;;1.77;;
50225;SDS011;36113;50.742;6.432;2024-03-06T03:59:42;3.47;;;1.70;;
50225;SDS011;36113;50.742;6.432;2024-03-06T04:02:07;2.85;;;1.58;;
50225;SDS011;36113;50.742;6.432;2024-03-06T04:04:33;2.22;;;1.60;;
50225;SDS011;36113;50.742;6.432;2024-03-06T04:06:59;1.60;;;1.50;;
50225;SDS011;36113;50.742;6.432;2024-03-06T04:09:26;3.03;;;2.00;;
50225;SDS011;36113;50.742;6.432;2024-03-06T04:11:52;1.80;;;1.70;;
50225;SDS011;36113;50.742;6.432;2024-03-06T04:14:17;2.63;;;2.22;;
50225;SDS011;36113;50.742;6.432;2024-03-06T04:16:44;2.90;;;2.70;;
50225;SDS011;36113;50.742;6.432;2024-03-06T04:19:10;4.13;;;3.20;;
50225;SDS011;36113;50.742;6.432;2024-03-06T04:21:40;2.78;;;2.53;;
50225;SDS011;36113;50.742;6.432;2024-03-06T04:24:06;2.45;;;2.35;;
50225;SDS011;36113;50.742;6.432;2024-03-06T04:26:32;2.42;;;2.05;;
50225;SDS011;36113;50.742;6.432;2024-03-06T04:28:57;3.33;;;2.50;;
50225;SDS011;36113;50.742;6.432;2024-03-06T04:31:22;2.63;;;2.42;;
50225;SDS011;36113;50.742;6.432;2024-03-06T04:33:48;3.42;;;2.30;;
50225;SDS011;36113;50.742;6.432;2024-03-06T04:36:13;3.10;;;2.60;;
50225;SDS011;36113;50.742;6.432;2024-03-06T04:38:38;4.10;;;2.10;;
50225;SDS011;36113;50.742;6.432;2024-03-06T04:41:05;2.53;;;2.33;;
50225;SDS011;36113;50.742;6.432;2024-03-06T04:43:31;5.82;;;2.50;;
50225;SDS011;36113;50.742;6.432;2024-03-06T04:45:56;2.33;;;2.15;;
50225;SDS011;36113;50.742;6.432;2024-03-06T04:48:22;3.65;;;2.75;;
50225;SDS011;36113;50.742;6.432;2024-03-06T04:50:47;2.75;;;2.25;;
50225;SDS011;36113;50.742;6.432;2024-03-06T04:53:12;2.42;;;2.22;;
50225;SDS011;36113;50.742;6.432;2024-03-06T04:55:38;4.70;;;2.60;;
50225;SDS011;36113;50.742;6.432;2024-03-06T04:58:03;4.88;;;2.72;;
50225;SDS011;36113;50.742;6.432;2024-03-06T05:00:29;2.70;;;2.17;;
50225;SDS011;36113;50.742;6.432;2024-03-06T05:02:55;3.03;;;2.63;;
50225;SDS011;36113;50.742;6.432;2024-03-06T05:05:21;2.53;;;2.33;;
50225;SDS011;36113;50.742;6.432;2024-03-06T05:07:47;3.03;;;2.80;;
50225;SDS011;36113;50.742;6.432;2024-03-06T05:10:13;4.00;;;2.72;;
50225;SDS011;36113;50.742;6.432;2024-03-06T05:12:38;3.25;;;2.83;;
50225;SDS011;36113;50.742;6.432;2024-03-06T05:15:04;6.25;;;3.67;;
50225;SDS011;36113;50.742;6.432;2024-03-06T05:17:30;3.37;;;2.77;;
50225;SDS011;36113;50.742;6.432;2024-03-06T05:19:55;2.70;;;2.50;;
50225;SDS011;36113;50.742;6.432;2024-03-06T05:22:20;3.13;;;2.63;;
50225;SDS011;36113;50.742;6.432;2024-03-06T05:24:46;3.30;;;3.05;;
50225;SDS011;36113;50.742;6.432;2024-03-06T05:27:11;3.30;;;2.97;;
50225;SDS011;36113;50.742;6.432;2024-03-06T05:29:41;3.78;;;3.17;;
50225;SDS011;36113;50.742;6.432;2024-03-06T05:32:06;3.47;;;3.20;;
50225;SDS011;36113;50.742;6.432;2024-03-06T05:34:32;5.32;;;3.38;;
50225;SDS011;36113;50.742;6.432;2024-03-06T05:36:58;5.17;;;4.07;;
50225;SDS011;36113;50.742;6.432;2024-03-06T05:39:24;7.63;;;4.10;;
50225;SDS011;36113;50.742;6.432;2024-03-06T05:41:49;4.90;;;3.92;;
50225;SDS011;36113;50.742;6.432;2024-03-06T05:44:14;4.13;;;3.72;;
50225;SDS011;36113;50.742;6.432;2024-03-06T05:46:40;3.65;;;3.35;;
50225;SDS011;36113;50.742;6.432;2024-03-06T05:49:05;3.60;;;3.20;;
50225;SDS011;36113;50.742;6.432;2024-03-06T05:51:30;3.80;;;3.50;;
50225;SDS011;36113;50.742;6.432;2024-03-06T05:53:56;4.45;;;3.05;;
50225;SDS011;36113;50.742;6.432;2024-03-06T05:56:21;3.75;;;3.35;;
50225;SDS011;36113;50.742;6.432;2024-03-06T05:58:47;5.30;;;4.07;;
50225;SDS011;36113;50.742;6.432;2024-03-06T06:01:12;3.88;;;3.45;;
50225;SDS011;36113;50.742;6.432;2024-03-06T06:03:45;3.83;;;3.47;;
50225;SDS011;36113;50.742;6.432;2024-03-06T06:06:10;5.20;;;3.88;;
50225;SDS011;36113;50.742;6.432;2024-03-06T06:08:35;4.22;;;3.75;;
50225;SDS011;36113;50.742;6.432;2024-03-06T06:11:04;6.00;;;4.82;;
50225;SDS011;36113;50.742;6.432;2024-03-06T06:13:29;7.30;;;5.93;;
50225;SDS011;36113;50.742;6.432;2024-03-06T06:15:58;6.65;;;5.70;;
50225;SDS011;36113;50.742;6.432;2024-03-06T06:18:23;7.32;;;5.97;;
50225;SDS011;36113;50.742;6.432;2024-03-06T06:20:48;5.90;;;5.15;;
50225;SDS011;36113;50.742;6.432;2024-03-06T06:23:14;7.13;;;5.70;;
50225;SDS011;36113;50.742;6.432;2024-03-06T06:25:39;9.35;;;5.53;;
50225;SDS011;36113;50.742;6.432;2024-03-06T06:28:04;7.95;;;5.55;;
50225;SDS011;36113;50.742;6.432;2024-03-06T06:30:30;7.68;;;5.75;;
50225;SDS011;36113;50.742;6.432;2024-03-06T06:32:56;8.88;;;7.05;;
50225;SDS011;36113;50.742;6.432;2024-03-06T06:35:21;13.85;;;7.80;;
50225;SDS011;36113;50.742;6.432;2024-03-06T06:37:47;13.15;;;8.90;;
50225;SDS011;36113;50.742;6.432;2024-03-06T06:40:12;11.88;;;7.65;;
50225;SDS011;36113;50.742;6.432;2024-03-06T06:42:43;14.10;;;8.95;;
50225;SDS011;36113;50.742;6.432;2024-03-06T06:45:12;14.93;;;9.27;;
50225;SDS011;36113;50.742;6.432;2024-03-06T06:47:37;14.23;;;9.38;;
50225;SDS011;36113;50.742;6.432;2024-03-06T06:50:04;14.38;;;8.73;;
50225;SDS011;36113;50.742;6.432;2024-03-06T06:52:30;10.77;;;8.00;;
50225;SDS011;36113;50.742;6.432;2024-03-06T06:54:57;12.73;;;7.93;;
50225;SDS011;36113;50.742;6.432;2024-03-06T06:57:23;8.15;;;6.72;;
50225;SDS011;36113;50.742;6.432;2024-03-06T06:59:48;12.32;;;8.27;;
50225;SDS011;36113;50.742;6.432;2024-03-06T07:02:13;9.77;;;7.88;;
50225;SDS011;36113;50.742;6.432;2024-03-06T07:04:39;10.40;;;7.70;;
50225;SDS011;36113;50.742;6.432;2024-03-06T07:07:05;10.23;;;7.30;;
50225;SDS011;36113;50.742;6.432;2024-03-06T07:09:30;7.45;;;6.65;;
50225;SDS011;36113;50.742;6.432;2024-03-06T07:11:55;11.35;;;6.93;;
50225;SDS011;36113;50.742;6.432;2024-03-06T07:14:21;12.23;;;6.80;;
50225;SDS011;36113;50.742;6.432;2024-03-06T07:16:46;11.85;;;7.72;;
50225;SDS011;36113;50.742;6.432;2024-03-06T07:19:12;12.77;;;8.52;;
50225;SDS011;36113;50.742;6.432;2024-03-06T07:21:38;15.63;;;8.73;;
50225;SDS011;36113;50.742;6.432;2024-03-06T07:24:04;12.77;;;8.07;;
50225;SDS011;36113;50.742;6.432;2024-03-06T07:26:31;16.33;;;7.67;;
50225;SDS011;36113;50.742;6.432;2024-03-06T07:28:57;9.43;;;6.57;;
50225;SDS011;36113;50.742;6.432;2024-03-06T07:31:23;8.05;;;6.93;;
50225;SDS011;36113;50.742;6.432;2024-03-06T07:33:49;7.75;;;5.78;;
50225;SDS011;36113;50.742;6.432;2024-03-06T07:36:15;10.23;;;6.00;;
50225;SDS011;36113;50.742;6.432;2024-03-06T07:38:41;6.82;;;6.07;;
50225;SDS011;36113;50.742;6.432;2024-03-06T07:41:07;6.68;;;5.55;;
50225;SDS011;36113;50.742;6.432;2024-03-06T07:43:32;7.25;;;5.30;;
50225;SDS011;36113;50.742;6.432;2024-03-06T07:45:58;8.45;;;6.15;;
50225;SDS011;36113;50.742;6.432;2024-03-06T07:48:23;6.07;;;5.22;;
50225;SDS011;36113;50.742;6.432;2024-03-06T07:50:49;10.15;;;5.82;;
50225;SDS011;36113;50.742;6.432;2024-03-06T07:53:14;7.45;;;5.80;;
50225;SDS011;36113;50.742;6.432;2024-03-06T07:55:41;6.40;;;5.37;;
50225;SDS011;36113;50.742;6.432;2024-03-06T07:58:06;9.75;;;5.68;;
50225;SDS011;36113;50.742;6.432;2024-03-06T08:00:33;7.32;;;5.22;;
50225;SDS011;36113;50.742;6.432;2024-03-06T08:02:59;6.00;;;4.93;;
50225;SDS011;36113;50.742;6.432;2024-03-06T08:05:25;6.28;;;5.22;;
50225;SDS011;36113;50.742;6.432;2024-03-06T08:07:51;5.35;;;4.85;;
50225;SDS011;36113;50.742;6.432;2024-03-06T08:10:16;5.97;;;5.47;;
50225;SDS011;36113;50.742;6.432;2024-03-06T08:12:43;5.13;;;4.63;;
50225;SDS011;36113;50.742;6.432;2024-03-06T08:15:10;6.75;;;4.82;;
50225;SDS011;36113;50.742;6.432;2024-03-06T08:17:38;4.97;;;4.47;;
50225;SDS011;36113;50.742;6.432;2024-03-06T08:20:04;5.35;;;4.85;;
50225;SDS011;36113;50.742;6.432;2024-03-06T08:22:34;6.32;;;4.95;;
50225;SDS011;36113;50.742;6.432;2024-03-06T08:25:04;4.72;;;4.32;;
50225;SDS011;36113;50.742;6.432;2024-03-06T08:27:33;4.90;;;4.38;;
50225;SDS011;36113;50.742;6.432;2024-03-06T08:30:03;3.33;;;3.03;;
50225;SDS011;36113;50.742;6.432;2024-03-06T08:32:32;6.53;;;3.55;;
50225;SDS011;36113;50.742;6.432;2024-03-06T08:35:00;4.10;;;3.63;;
50225;SDS011;36113;50.742;6.432;2024-03-06T08:37:31;4.78;;;4.28;;
50225;SDS011;36113;50.742;6.432;2024-03-06T08:39:57;3.87;;;3.43;;
50225;SDS011;36113;50.742;6.432;2024-03-06T08:42:23;4.03;;;3.72;;
50225;SDS011;36113;50.742;6.432;2024-03-06T08:44:49;4.63;;;3.90;;
50225;SDS011;36113;50.742;6.432;2024-03-06T08:47:14;3.80;;;3.50;;
50225;SDS011;36113;50.742;6.432;2024-03-06T08:49:39;7.35;;;4.25;;
50225;SDS011;36113;50.742;6.432;2024-03-06T08:52:05;4.43;;;4.03;;
50225;SDS011;36113;50.742;6.432;2024-03-06T08:54:30;4.38;;;3.60;;
50225;SDS011;36113;50.742;6.432;2024-03-06T08:56:56;3.15;;;2.85;;
50225;SDS011;36113;50.742;6.432;2024-03-06T08:59:23;3.88;;;2.90;;
50225;SDS011;36113;50.742;6.432;2024-03-06T09:01:51;3.33;;;2.72;;
50225;SDS011;36113;50.742;6.432;2024-03-06T09:04:17;3.15;;;2.45;;
50225;SDS011;36113;50.742;6.432;2024-03-06T09:06:42;6.60;;;2.65;;
50225;SDS011;36113;50.742;6.432;2024-03-06T09:09:08;3.42;;;2.50;;
50225;SDS011;36113;50.742;6.432;2024-03-06T09:11:34;3.00;;;2.38;;
50225;SDS011;36113;50.742;6.432;2024-03-06T09:14:00;3.33;;;3.03;;
50225;SDS011;36113;50.742;6.432;2024-03-06T09:16:25;3.30;;;3.00;;
50225;SDS011;36113;50.742;6.432;2024-03-06T09:18:50;3.53;;;3.03;;
50225;SDS011;36113;50.742;6.432;2024-03-06T09:21:16;4.88;;;2.65;;
50225;SDS011;36113;50.742;6.432;2024-03-06T09:23:41;5.03;;;3.03;;
50225;SDS011;36113;50.742;6.432;2024-03-06T09:26:07;3.05;;;2.80;;
50225;SDS011;36113;50.742;6.432;2024-03-06T09:28:32;3.80;;;3.50;;
50225;SDS011;36113;50.742;6.432;2024-03-06T09:30:57;3.08;;;2.50;;
50225;SDS011;36113;50.742;6.432;2024-03-06T09:33:22;3.60;;;3.30;;
50225;SDS011;36113;50.742;6.432;2024-03-06T09:35:48;6.63;;;3.15;;
50225;SDS011;36113;50.742;6.432;2024-03-06T09:38:13;5.45;;;3.10;;
50225;SDS011;36113;50.742;6.432;2024-03-06T09:40:39;3.08;;;2.75;;
50225;SDS011;36113;50.742;6.432;2024-03-06T09:43:07;2.92;;;2.70;;
50225;SDS011;36113;50.742;6.432;2024-03-06T09:45:33;6.57;;;3.08;;
50225;SDS011;36113;50.742;6.432;2024-03-06T09:50:25;3.05;;;2.83;;
50225;SDS011;36113;50.742;6.432;2024-03-06T09:52:54;4.22;;;2.88;;
50225;SDS011;36113;50.742;6.432;2024-03-06T09:55:21;3.95;;;2.90;;
50225;SDS011;36113;50.742;6.432;2024-03-06T09:57:47;3.25;;;2.95;;
50225;SDS011;36113;50.742;6.432;2024-03-06T10:00:13;3.15;;;2.88;;
50225;SDS011;36113;50.742;6.432;2024-03-06T10:02:39;3.22;;;2.72;;
50225;SDS011;36113;50.742;6.432;2024-03-06T10:05:21;3.40;;;2.90;;
50225;SDS011;36113;50.742;6.432;2024-03-06T10:07:49;5.07;;;3.30;;
50225;SDS011;36113;50.742;6.432;2024-03-06T10:10:16;3.25;;;3.05;;
50225;SDS011;36113;50.742;6.432;2024-03-06T10:12:42;3.72;;;3.10;;
50225;SDS011;36113;50.742;6.432;2024-03-06T10:15:09;3.13;;;2.78;;
50225;SDS011;36113;50.742;6.432;2024-03-06T10:17:37;4.45;;;2.55;;
50225;SDS011;36113;50.742;6.432;2024-03-06T10:20:24;4.85;;;2.65;;
50225;SDS011;36113;50.742;6.432;2024-03-06T10:22:49;3.42;;;3.13;;
50225;SDS011;36113;50.742;6.432;2024-03-06T10:27:43;6.72;;;2.53;;
50225;SDS011;36113;50.742;6.432;2024-03-06T10:30:08;3.45;;;2.33;;
50225;SDS011;36113;50.742;6.432;2024-03-06T10:32:36;2.97;;;2.35;;
50225;SDS011;36113;50.742;6.432;2024-03-06T10:35:01;3.72;;;2.20;;
50225;SDS011;36113;50.742;6.432;2024-03-06T10:37:28;2.08;;;1.98;;
50225;SDS011;36113;50.742;6.432;2024-03-06T10:42:20;4.32;;;2.78;;
50225;SDS011;36113;50.742;6.432;2024-03-06T10:44:51;4.10;;;3.00;;
50225;SDS011;36113;50.742;6.432;2024-03-06T10:47:19;3.70;;;3.40;;
50225;SDS011;36113;50.742;6.432;2024-03-06T10:49:44;3.60;;;3.22;;
50225;SDS011;36113;50.742;6.432;2024-03-06T10:52:11;3.00;;;2.80;;
50225;SDS011;36113;50.742;6.432;2024-03-06T10:54:37;4.05;;;2.35;;
50225;SDS011;36113;50.742;6.432;2024-03-06T10:57:06;3.28;;;2.05;;
50225;SDS011;36113;50.742;6.432;2024-03-06T10:59:35;6.85;;;3.90;;
50225;SDS011;36113;50.742;6.432;2024-03-06T11:02:00;4.30;;;3.90;;
50225;SDS011;36113;50.742;6.432;2024-03-06T11:04:26;4.32;;;3.78;;
50225;SDS011;36113;50.742;6.432;2024-03-06T11:06:59;3.15;;;2.83;;
50225;SDS011;36113;50.742;6.432;2024-03-06T11:09:26;7.20;;;4.13;;
50225;SDS011;36113;50.742;6.432;2024-03-06T11:11:52;7.10;;;3.40;;
50225;SDS011;36113;50.742;6.432;2024-03-06T11:14:22;3.47;;;2.88;;
50225;SDS011;36113;50.742;6.432;2024-03-06T11:16:59;3.38;;;3.17;;
50225;SDS011;36113;50.742;6.432;2024-03-06T11:19:28;5.57;;;4.20;;
50225;SDS011;36113;50.742;6.432;2024-03-06T11:21:55;5.22;;;3.90;;
50225;SDS011;36113;50.742;6.432;2024-03-06T11:24:21;5.57;;;3.92;;
50225;SDS011;36113;50.742;6.432;2024-03-06T11:26:55;7.85;;;3.97;;
50225;SDS011;36113;50.742;6.432;2024-03-06T11:29:27;4.35;;;3.95;;
50225;SDS011;36113;50.742;6.432;2024-03-06T11:32:06;4.60;;;3.70;;
50225;SDS011;36113;50.742;6.432;2024-03-06T11:34:33;6.63;;;4.15;;
50225;SDS011;36113;50.742;6.432;2024-03-06T11:39:32;4.50;;;4.07;;
50225;SDS011;36113;50.742;6.432;2024-03-06T11:41:59;5.90;;;4.53;;
50225;SDS011;36113;50.742;6.432;2024-03-06T11:44:24;6.88;;;4.97;;
50225;SDS011;36113;50.742;6.432;2024-03-06T11:46:59;5.40;;;3.75;;
50225;SDS011;36113;50.742;6.432;2024-03-06T11:49:29;4.35;;;3.97;;
50225;SDS011;36113;50.742;6.432;2024-03-06T11:51:59;4.32;;;3.60;;
50225;SDS011;36113;50.742;6.432;2024-03-06T11:54:26;4.10;;;3.70;;
50225;SDS011;36113;50.742;6.432;2024-03-06T11:56:53;4.47;;;4.07;;
50225;SDS011;36113;50.742;6.432;2024-03-06T11:59:26;4.28;;;3.88;;
50225;SDS011;36113;50.742;6.432;2024-03-06T12:01:53;3.63;;;3.33;;
50225;SDS011;36113;50.742;6.432;2024-03-06T12:04:23;4.07;;;3.70;;
50225;SDS011;36113;50.742;6.432;2024-03-06T12:06:49;3.80;;;3.50;;
50225;SDS011;36113;50.742;6.432;2024-03-06T12:09:15;3.58;;;3.28;;
50225;SDS011;36113;50.742;6.432;2024-03-06T12:11:41;4.03;;;3.72;;
50225;SDS011;36113;50.742;6.432;2024-03-06T12:14:13;4.15;;;3.35;;
50225;SDS011;36113;50.742;6.432;2024-03-06T12:16:39;4.10;;;3.70;;
50225;SDS011;36113;50.742;6.432;2024-03-06T12:19:05;4.15;;;3.75;;
50225;SDS011;36113;50.742;6.432;2024-03-06T12:21:30;7.53;;;4.80;;
50225;SDS011;36113;50.742;6.432;2024-03-06T12:24:03;7.17;;;6.23;;
50225;SDS011;36113;50.742;6.432;2024-03-06T12:26:29;5.72;;;5.22;;
50225;SDS011;36113;50.742;6.432;2024-03-06T12:29:03;6.20;;;5.53;;
50225;SDS011;36113;50.742;6.432;2024-03-06T12:31:30;7.53;;;5.57;;
50225;SDS011;36113;50.742;6.432;2024-03-06T12:33:56;6.57;;;5.90;;
50225;SDS011;36113;50.742;6.432;2024-03-06T12:36:24;5.13;;;4.72;;
50225;SDS011;36113;50.742;6.432;2024-03-06T12:38:58;5.43;;;4.93;;
50225;SDS011;36113;50.742;6.432;2024-03-06T12:41:24;6.25;;;4.53;;
50225;SDS011;36113;50.742;6.432;2024-03-06T12:43:51;7.05;;;4.75;;
50225;SDS011;36113;50.742;6.432;2024-03-06T12:46:16;5.30;;;4.78;;
50225;SDS011;36113;50.742;6.432;2024-03-06T12:48:42;8.07;;;4.68;;
50225;SDS011;36113;50.742;6.432;2024-03-06T12:51:07;5.32;;;4.90;;
50225;SDS011;36113;50.742;6.432;2024-03-06T12:53:32;4.68;;;4.20;;
50225;SDS011;36113;50.742;6.432;2024-03-06T12:56:00;6.55;;;4.97;;
50225;SDS011;36113;50.742;6.432;2024-03-06T12:58:25;5.72;;;5.20;;
50225;SDS011;36113;50.742;6.432;2024-03-06T13:00:50;5.82;;;4.60;;
50225;SDS011;36113;50.742;6.432;2024-03-06T13:03:17;5.05;;;4.70;;
50225;SDS011;36113;50.742;6.432;2024-03-06T13:05:42;6.10;;;4.82;;
50225;SDS011;36113;50.742;6.432;2024-03-06T13:08:07;5.70;;;5.25;;
50225;SDS011;36113;50.742;6.432;2024-03-06T13:10:33;6.40;;;5.40;;
50225;SDS011;36113;50.742;6.432;2024-03-06T13:13:00;5.18;;;4.68;;
50225;SDS011;36113;50.742;6.432;2024-03-06T13:15:26;6.55;;;5.63;;
50225;SDS011;36113;50.742;6.432;2024-03-06T13:17:51;5.47;;;4.97;;
50225;SDS011;36113;50.742;6.432;2024-03-06T13:20:16;5.75;;;4.70;;
50225;SDS011;36113;50.742;6.432;2024-03-06T13:22:42;9.93;;;4.93;;
50225;SDS011;36113;50.742;6.432;2024-03-06T13:27:34;5.80;;;5.30;;
50225;SDS011;36113;50.742;6.432;2024-03-06T13:30:00;7.60;;;5.05;;
50225;SDS011;36113;50.742;6.432;2024-03-06T13:32:25;7.07;;;5.10;;
50225;SDS011;36113;50.742;6.432;2024-03-06T13:34:51;4.97;;;4.57;;
50225;SDS011;36113;50.742;6.432;2024-03-06T13:37:16;5.50;;;5.00;;
50225;SDS011;36113;50.742;6.432;2024-03-06T13:39:42;5.97;;;5.38;;
50225;SDS011;36113;50.742;6.432;2024-03-06T13:42:07;6.35;;;5.75;;
50225;SDS011;36113;50.742;6.432;2024-03-06T13:44:33;9.38;;;5.55;;
50225;SDS011;36113;50.742;6.432;2024-03-06T13:49:39;6.18;;;5.40;;
50225;SDS011;36113;50.742;6.432;2024-03-06T13:52:06;5.38;;;4.93;;
50225;SDS011;36113;50.742;6.432;2024-03-06T13:54:37;5.75;;;5.18;;
50225;SDS011;36113;50.742;6.432;2024-03-06T13:57:03;5.03;;;4.63;;
50225;SDS011;36113;50.742;6.432;2024-03-06T13:59:31;6.03;;;5.35;;
50225;SDS011;36113;50.742;6.432;2024-03-06T14:01:56;6.30;;;5.72;;
50225;SDS011;36113;50.742;6.432;2024-03-06T14:04:22;5.78;;;5.18;;
50225;SDS011;36113;50.742;6.432;2024-03-06T14:06:48;6.00;;;5.05;;
50225;SDS011;36113;50.742;6.432;2024-03-06T14:09:14;5.03;;;4.53;;
50225;SDS011;36113;50.742;6.432;2024-03-06T14:11:39;6.95;;;4.95;;
50225;SDS011;36113;50.742;6.432;2024-03-06T14:14:05;5.32;;;4.80;;
50225;SDS011;36113;50.742;6.432;2024-03-06T14:16:31;5.88;;;4.75;;
50225;SDS011;36113;50.742;6.432;2024-03-06T14:18:56;5.65;;;4.72;;
50225;SDS011;36113;50.742;6.432;2024-03-06T14:21:21;6.03;;;4.25;;
50225;SDS011;36113;50.742;6.432;2024-03-06T14:23:47;4.95;;;4.55;;
50225;SDS011;36113;50.742;6.432;2024-03-06T14:26:12;5.13;;;4.63;;
50225;SDS011;36113;50.742;6.432;2024-03-06T14:28:37;7.00;;;4.45;;
50225;SDS011;36113;50.742;6.432;2024-03-06T14:31:03;4.60;;;4.20;;
50225;SDS011;36113;50.742;6.432;2024-03-06T14:33:28;6.85;;;4.43;;
50225;SDS011;36113;50.742;6.432;2024-03-06T14:35:54;4.72;;;4.05;;
50225;SDS011;36113;50.742;6.432;2024-03-06T14:38:19;4.22;;;3.90;;
50225;SDS011;36113;50.742;6.432;2024-03-06T14:40:45;4.97;;;3.97;;
50225;SDS011;36113;50.742;6.432;2024-03-06T14:43:10;4.18;;;3.60;;
50225;SDS011;36113;50.742;6.432;2024-03-06T14:45:37;4.43;;;3.88;;
50225;SDS011;36113;50.742;6.432;2024-03-06T14:48:07;4.00;;;3.70;;
50225;SDS011;36113;50.742;6.432;2024-03-06T14:50:32;3.50;;;3.20;;
50225;SDS011;36113;50.742;6.432;2024-03-06T14:52:58;5.80;;;3.72;;
50225;SDS011;36113;50.742;6.432;2024-03-06T14:55:23;4.07;;;3.78;;
50225;SDS011;36113;50.742;6.432;2024-03-06T14:57:49;4.15;;;3.75;;
50225;SDS011;36113;50.742;6.432;2024-03-06T15:00:14;3.85;;;3.55;;